Lexington, NE

12:10 PM CDT on July 22, 2017 (GMT -0500)
Kelly

Weather History for KLXN - January, 2013

Change the Weather History Date:

Saturday, January 26, 2013

  Actual Average Record
Temperature  
Mean Temperature 40 °F -  
Max Temperature 56 °F 36 °F 71 °F (2002)
Min Temperature 25 °F 15 °F 0 °F (1997)
Degree Days  
Heating Degree Days 24    
Moisture  
Dew Point 28 °F    
Average Humidity 61    
Maximum Humidity 86    
Minimum Humidity 32    
Precipitation  
Precipitation 0.00 in - - ()
Sea Level Pressure  
Sea Level Pressure 29.99 in    
Wind  
Wind Speed 7 mph (South)    
Max Wind Speed 23 mph    
Max Gust Speed 29 mph    
Visibility 10 miles    
Events      
Averages and records for this station are not official NWS values.
T = Trace of Precipitation, MM = Missing Value Source: NWS Daily Summary

Daily Weather History Graph

Daily Weather History Graph

Search for Another Location

Airport or City:

Trip Planner

Search our weather history database for the weather conditions in past years. The results will help you decide how hot, cold, wet, or windy it might be!

Date:

Astronomy

Jan. 26, 2013 Rise Set
Actual Time 7:54 AM CST 5:49 PM CST
Civil Twilight 7:24 AM CST 6:19 PM CST
Nautical Twilight 6:51 AM CST 6:52 PM CST
Astronomical Twilight 6:19 AM CST 7:24 PM CST
Moon 5:46 PM CST (1/26) 7:12 AM CST (1/26)
Length of Visible Light 10h 54m
Length of Day
9h 55m
Full, 100% of the Moon is Illuminated
Jan 26
Full
Jan 26
Full
Feb 3
Last Quarter
Feb 10
New
Feb 17
First Quarter

Hourly Weather History & Observations

Time (CST) Temp. Windchill Dew Point Humidity Pressure Visibility Wind Dir Wind Speed Gust Speed Precip Events Conditions
12:15 AM 26.4 °F 20.9 °F 22.5 °F 85% 30.12 in 10.0 mi ESE 4.6 mph - N/A   Clear
12:35 AM 25.9 °F - 21.6 °F 84% 30.12 in 10.0 mi Calm Calm - N/A   Clear
12:55 AM 27.5 °F - 22.6 °F 82% 30.12 in 10.0 mi Calm Calm - N/A   Clear
1:15 AM 28.6 °F - 24.3 °F 84% 30.11 in 10.0 mi Calm Calm - N/A   Clear
1:35 AM 37.0 °F - 26.4 °F 65% 30.11 in 10.0 mi Calm Calm - N/A   Clear
1:55 AM 37.4 °F 33.8 °F 26.4 °F 65% 30.11 in 10.0 mi SW 4.6 mph - N/A   Clear
2:15 AM 38.7 °F 35.2 °F 26.6 °F 62% 30.10 in 10.0 mi SW 4.6 mph - N/A   Clear
2:35 AM 37.8 °F - 26.1 °F 63% 30.10 in 10.0 mi Calm Calm - N/A   Clear
2:55 AM 35.8 °F 30.9 °F 25.7 °F 67% 30.09 in 10.0 mi SW 5.8 mph - N/A   Clear
3:15 AM 33.3 °F - 24.8 °F 71% 30.09 in 10.0 mi Calm Calm - N/A   Clear
3:35 AM 31.5 °F 28.1 °F 24.3 °F 75% 30.08 in 10.0 mi SSW 3.5 mph - N/A   Clear
3:55 AM 32.2 °F - 25.0 °F 75% 30.08 in 10.0 mi Calm Calm - N/A   Clear
4:15 AM 34.0 °F - 25.2 °F 70% 30.07 in 10.0 mi Calm Calm - N/A   Clear
4:35 AM 36.0 °F - 26.1 °F 67% 30.06 in 10.0 mi Calm Calm - N/A   Clear
4:55 AM 33.8 °F 30.8 °F 25.3 °F 71% 30.06 in 10.0 mi SSE 3.5 mph - N/A   Clear
5:15 AM 32.4 °F 29.1 °F 25.5 °F 76% 30.06 in 10.0 mi SSE 3.5 mph - N/A   Clear
5:35 AM 31.8 °F - 24.8 °F 75% 30.06 in 10.0 mi Calm Calm - N/A   Clear
6:15 AM 26.1 °F 21.9 °F 21.2 °F 82% 30.06 in 10.0 mi NNW 3.5 mph - N/A   Clear
6:35 AM 30.2 °F - 24.4 °F 79% 30.06 in 10.0 mi Calm Calm - N/A   Clear
7:15 AM 30.2 °F 25.4 °F 23.2 °F 75% 30.06 in 10.0 mi SE 4.6 mph - N/A   Clear
7:35 AM 30.6 °F 24.7 °F 24.6 °F 79% 30.06 in 10.0 mi SE 5.8 mph - N/A   Clear
7:55 AM 29.7 °F 23.7 °F 24.3 °F 80% 30.06 in 10.0 mi ESE 5.8 mph - N/A   Clear
8:15 AM 30.0 °F 25.2 °F 24.6 °F 80% 30.06 in 10.0 mi SE 4.6 mph - N/A   Clear
8:35 AM 30.4 °F 24.5 °F 24.8 °F 80% 30.06 in 10.0 mi SE 5.8 mph - N/A   Clear
8:55 AM 33.4 °F 26.6 °F 26.6 °F 76% 30.06 in 10.0 mi SSE 8.1 mph - N/A   Clear
9:15 AM 35.2 °F 29.5 °F 27.1 °F 72% 30.06 in 10.0 mi SSE 6.9 mph - N/A   Clear
9:35 AM 36.1 °F 32.3 °F 27.7 °F 71% 30.06 in 10.0 mi SSE 4.6 mph - N/A   Clear
9:55 AM 39.7 °F 33.7 °F 28.6 °F 64% 30.06 in 10.0 mi South 9.2 mph - N/A   Clear
10:15 AM 41.9 °F 35.9 °F 28.4 °F 59% 30.06 in 10.0 mi South 10.4 mph - N/A   Clear
10:35 AM 42.8 °F 37.0 °F 28.6 °F 57% 30.05 in 10.0 mi South 10.4 mph - N/A   Clear
10:55 AM 44.2 °F 38.0 °F 28.4 °F 54% 30.05 in 10.0 mi South 12.7 mph - N/A   Clear
11:15 AM 45.0 °F 38.9 °F 28.4 °F 52% 30.05 in 10.0 mi South 12.7 mph - N/A   Clear
11:35 AM 45.9 °F 39.1 °F 28.0 °F 50% 30.04 in 10.0 mi South 16.1 mph - N/A   Clear
11:55 AM 46.4 °F 39.2 °F 27.9 °F 48% 30.03 in 10.0 mi South 18.4 mph - N/A   Clear
12:15 PM 48.4 °F - 27.9 °F 45% 30.01 in 10.0 mi South 19.6 mph - N/A   Clear
12:35 PM 50.0 °F - 28.4 °F 43% 30.00 in 10.0 mi SSW 17.3 mph 23.0 mph N/A   Clear
12:55 PM 52.2 °F - 27.3 °F 38% 29.99 in 10.0 mi South 20.7 mph 25.3 mph N/A   Clear
1:15 PM 53.6 °F - 26.8 °F 36% 29.98 in 10.0 mi South 23.0 mph 27.6 mph N/A   Clear
1:35 PM 54.3 °F - 26.6 °F 34% 29.97 in 10.0 mi SSW 23.0 mph 28.8 mph N/A   Clear
1:55 PM 55.2 °F - 26.6 °F 33% 29.96 in 10.0 mi SSW 19.6 mph 24.2 mph N/A   Clear
2:15 PM 55.6 °F - 26.4 °F 33% 29.94 in 10.0 mi South 20.7 mph 27.6 mph N/A   Clear
2:35 PM 56.1 °F - 26.4 °F 32% 29.94 in 10.0 mi SSW 20.7 mph - N/A   Clear
2:55 PM 56.1 °F - 26.2 °F 32% 29.93 in 10.0 mi SSW 21.9 mph 26.5 mph N/A   Clear
3:15 PM 55.2 °F - 25.9 °F 32% 29.93 in 10.0 mi South 17.3 mph 28.8 mph N/A   Clear
3:35 PM 55.4 °F - 26.2 °F 33% 29.92 in 10.0 mi South 20.7 mph 24.2 mph N/A   Clear
3:55 PM 55.4 °F - 26.4 °F 33% 29.92 in 10.0 mi South 19.6 mph - N/A   Clear
4:15 PM 54.0 °F - 26.2 °F 34% 29.92 in 10.0 mi South 16.1 mph - N/A   Clear
4:35 PM 53.1 °F - 26.4 °F 36% 29.92 in 10.0 mi South 15.0 mph - N/A   Clear
4:55 PM 52.2 °F - 26.6 °F 37% 29.91 in 10.0 mi South 12.7 mph 17.3 mph N/A   Clear
5:15 PM 50.9 °F - 27.0 °F 40% 29.91 in 10.0 mi South 10.4 mph - N/A   Clear
5:35 PM 49.5 °F - 27.1 °F 42% 29.91 in 10.0 mi SSE 9.2 mph - N/A   Clear
5:55 PM 47.3 °F - 27.5 °F 46% 29.91 in 10.0 mi SSE 9.2 mph - N/A   Clear
6:15 PM 45.7 °F 41.0 °F 27.5 °F 49% 29.91 in 10.0 mi SSE 9.2 mph - N/A   Clear
6:35 PM 45.7 °F 41.0 °F 28.2 °F 51% 29.92 in 10.0 mi SSE 9.2 mph - N/A   Clear
6:55 PM 45.1 °F 39.9 °F 28.2 °F 52% 29.92 in 10.0 mi South 10.4 mph - N/A   Clear
7:15 PM 43.7 °F 39.7 °F 27.5 °F 53% 29.92 in 10.0 mi SSE 6.9 mph - N/A   Clear
7:35 PM 42.6 °F 37.8 °F 27.5 °F 55% 29.92 in 10.0 mi SSE 8.1 mph - N/A   Clear
7:55 PM 44.1 °F 39.0 °F 28.2 °F 54% 29.91 in 10.0 mi SSE 9.2 mph - N/A   Clear
8:15 PM 44.1 °F 39.0 °F 28.4 °F 54% 29.90 in 10.0 mi SSE 9.2 mph - N/A   Clear
8:35 PM 43.9 °F 38.3 °F 29.3 °F 57% 29.90 in 10.0 mi SSE 10.4 mph - N/A   Clear
8:55 PM 43.2 °F 36.6 °F 29.8 °F 59% 29.89 in 10.0 mi SSE 12.7 mph - N/A   Scattered Clouds
9:15 PM 44.1 °F 38.1 °F 34.0 °F 68% 29.89 in 10.0 mi SSE 11.5 mph - N/A   Mostly Cloudy
9:35 PM 43.7 °F 36.9 °F 35.1 °F 72% 29.88 in 10.0 mi SSE 13.8 mph - N/A   Overcast
9:55 PM 43.9 °F 37.5 °F 37.2 °F 77% 29.87 in 10.0 mi South 12.7 mph - N/A   Overcast
10:15 PM 43.7 °F 37.7 °F 37.9 °F 80% 29.86 in 10.0 mi South 11.5 mph - N/A   Mostly Cloudy
10:35 PM 43.2 °F 37.0 °F 38.3 °F 83% 29.87 in 10.0 mi South 11.5 mph - N/A   Overcast
10:55 PM 42.8 °F 36.2 °F 38.1 °F 84% 29.85 in 7.0 mi South 12.7 mph 19.6 mph N/A   Overcast
11:15 PM 42.3 °F 36.3 °F 37.9 °F 85% 29.85 in 7.0 mi South 10.4 mph 17.3 mph N/A   Overcast
11:35 PM 41.9 °F 36.3 °F 37.9 °F 86% 29.85 in 7.0 mi South 9.2 mph - N/A   Overcast
11:55 PM 41.5 °F 36.4 °F 37.8 °F 86% 29.85 in 7.0 mi South 8.1 mph - N/A   Overcast